sensor_id;sensor_type;location;lat;lon;timestamp;P1;durP1;ratioP1;P2;durP2;ratioP2
64052;SDS011;50299;49.524;8.536;2023-07-29T00:00:43;4.07;;;2.90;;
64052;SDS011;50299;49.524;8.536;2023-07-29T00:03:10;3.35;;;2.90;;
64052;SDS011;50299;49.524;8.536;2023-07-29T00:05:37;3.63;;;3.33;;
64052;SDS011;50299;49.524;8.536;2023-07-29T00:08:04;3.22;;;2.72;;
64052;SDS011;50299;49.524;8.536;2023-07-29T00:10:31;4.20;;;2.90;;
64052;SDS011;50299;49.524;8.536;2023-07-29T00:12:58;3.60;;;2.50;;
64052;SDS011;50299;49.524;8.536;2023-07-29T00:15:25;2.30;;;2.20;;
64052;SDS011;50299;49.524;8.536;2023-07-29T00:17:51;3.90;;;2.53;;
64052;SDS011;50299;49.524;8.536;2023-07-29T00:20:18;3.70;;;2.75;;
64052;SDS011;50299;49.524;8.536;2023-07-29T00:22:44;3.35;;;3.05;;
64052;SDS011;50299;49.524;8.536;2023-07-29T00:25:10;2.42;;;2.22;;
64052;SDS011;50299;49.524;8.536;2023-07-29T00:27:37;2.97;;;2.65;;
64052;SDS011;50299;49.524;8.536;2023-07-29T00:30:03;2.72;;;2.53;;
64052;SDS011;50299;49.524;8.536;2023-07-29T00:32:30;2.83;;;2.63;;
64052;SDS011;50299;49.524;8.536;2023-07-29T00:34:57;2.78;;;2.53;;
64052;SDS011;50299;49.524;8.536;2023-07-29T00:37:23;2.80;;;1.85;;
64052;SDS011;50299;49.524;8.536;2023-07-29T00:39:50;2.10;;;2.00;;
64052;SDS011;50299;49.524;8.536;2023-07-29T00:42:16;5.53;;;2.08;;
64052;SDS011;50299;49.524;8.536;2023-07-29T00:44:42;2.72;;;1.83;;
64052;SDS011;50299;49.524;8.536;2023-07-29T00:47:09;2.20;;;1.73;;
64052;SDS011;50299;49.524;8.536;2023-07-29T00:49:37;2.35;;;1.77;;
64052;SDS011;50299;49.524;8.536;2023-07-29T00:52:04;1.55;;;1.45;;
64052;SDS011;50299;49.524;8.536;2023-07-29T00:54:30;2.53;;;2.15;;
64052;SDS011;50299;49.524;8.536;2023-07-29T00:56:57;2.30;;;2.20;;
64052;SDS011;50299;49.524;8.536;2023-07-29T00:59:23;3.38;;;1.60;;
64052;SDS011;50299;49.524;8.536;2023-07-29T01:01:51;3.42;;;1.65;;
64052;SDS011;50299;49.524;8.536;2023-07-29T01:04:17;2.22;;;2.03;;
64052;SDS011;50299;49.524;8.536;2023-07-29T01:09:30;3.75;;;1.52;;
64052;SDS011;50299;49.524;8.536;2023-07-29T01:14:49;2.38;;;1.70;;
64052;SDS011;50299;49.524;8.536;2023-07-29T01:17:26;2.17;;;1.40;;
64052;SDS011;50299;49.524;8.536;2023-07-29T01:22:33;1.95;;;1.85;;
64052;SDS011;50299;49.524;8.536;2023-07-29T01:25:01;2.58;;;2.40;;
64052;SDS011;50299;49.524;8.536;2023-07-29T01:27:27;3.00;;;1.63;;
64052;SDS011;50299;49.524;8.536;2023-07-29T01:29:54;2.13;;;1.60;;
64052;SDS011;50299;49.524;8.536;2023-07-29T01:32:33;1.88;;;1.63;;
64052;SDS011;50299;49.524;8.536;2023-07-29T01:35:10;3.53;;;2.10;;
64052;SDS011;50299;49.524;8.536;2023-07-29T01:37:47;5.32;;;1.55;;
64052;SDS011;50299;49.524;8.536;2023-07-29T01:40:18;1.77;;;1.40;;
64052;SDS011;50299;49.524;8.536;2023-07-29T01:42:44;2.22;;;1.35;;
64052;SDS011;50299;49.524;8.536;2023-07-29T01:45:12;3.05;;;1.48;;
64052;SDS011;50299;49.524;8.536;2023-07-29T01:47:38;7.53;;;1.70;;
64052;SDS011;50299;49.524;8.536;2023-07-29T01:52:34;1.75;;;1.45;;
64052;SDS011;50299;49.524;8.536;2023-07-29T01:55:01;2.22;;;1.45;;
64052;SDS011;50299;49.524;8.536;2023-07-29T01:57:28;3.53;;;2.05;;
64052;SDS011;50299;49.524;8.536;2023-07-29T01:59:55;2.70;;;2.03;;
64052;SDS011;50299;49.524;8.536;2023-07-29T02:02:21;1.50;;;1.25;;
64052;SDS011;50299;49.524;8.536;2023-07-29T02:04:47;1.60;;;1.23;;
64052;SDS011;50299;49.524;8.536;2023-07-29T02:07:18;1.88;;;1.30;;
64052;SDS011;50299;49.524;8.536;2023-07-29T02:09:45;1.83;;;1.60;;
64052;SDS011;50299;49.524;8.536;2023-07-29T02:12:12;1.42;;;1.33;;
64052;SDS011;50299;49.524;8.536;2023-07-29T02:14:38;2.20;;;1.30;;
64052;SDS011;50299;49.524;8.536;2023-07-29T02:17:05;1.88;;;1.30;;
64052;SDS011;50299;49.524;8.536;2023-07-29T02:19:31;1.90;;;1.65;;
64052;SDS011;50299;49.524;8.536;2023-07-29T02:21:58;1.60;;;1.30;;
64052;SDS011;50299;49.524;8.536;2023-07-29T02:24:24;1.40;;;1.30;;
64052;SDS011;50299;49.524;8.536;2023-07-29T02:26:51;1.75;;;1.30;;
64052;SDS011;50299;49.524;8.536;2023-07-29T02:29:17;1.52;;;1.42;;
64052;SDS011;50299;49.524;8.536;2023-07-29T02:31:43;1.73;;;1.42;;
64052;SDS011;50299;49.524;8.536;2023-07-29T02:34:10;1.80;;;1.70;;
64052;SDS011;50299;49.524;8.536;2023-07-29T02:36:36;2.30;;;2.13;;
64052;SDS011;50299;49.524;8.536;2023-07-29T02:39:03;1.60;;;1.50;;
64052;SDS011;50299;49.524;8.536;2023-07-29T02:41:30;1.92;;;1.40;;
64052;SDS011;50299;49.524;8.536;2023-07-29T02:43:56;1.40;;;1.30;;
64052;SDS011;50299;49.524;8.536;2023-07-29T02:46:22;2.78;;;1.50;;
64052;SDS011;50299;49.524;8.536;2023-07-29T02:48:50;1.48;;;1.40;;
64052;SDS011;50299;49.524;8.536;2023-07-29T02:51:16;1.70;;;1.60;;
64052;SDS011;50299;49.524;8.536;2023-07-29T02:53:43;2.72;;;1.83;;
64052;SDS011;50299;49.524;8.536;2023-07-29T02:56:09;2.10;;;1.42;;
64052;SDS011;50299;49.524;8.536;2023-07-29T02:58:36;2.20;;;1.58;;
64052;SDS011;50299;49.524;8.536;2023-07-29T03:01:03;1.88;;;1.77;;
64052;SDS011;50299;49.524;8.536;2023-07-29T03:03:31;1.75;;;1.55;;
64052;SDS011;50299;49.524;8.536;2023-07-29T03:06:02;2.88;;;1.58;;
64052;SDS011;50299;49.524;8.536;2023-07-29T03:08:30;2.30;;;2.10;;
64052;SDS011;50299;49.524;8.536;2023-07-29T03:10:57;3.35;;;2.00;;
64052;SDS011;50299;49.524;8.536;2023-07-29T03:13:24;4.07;;;1.70;;
64052;SDS011;50299;49.524;8.536;2023-07-29T03:15:51;1.92;;;1.50;;
64052;SDS011;50299;49.524;8.536;2023-07-29T03:18:17;2.72;;;1.77;;
64052;SDS011;50299;49.524;8.536;2023-07-29T03:20:44;2.30;;;2.20;;
64052;SDS011;50299;49.524;8.536;2023-07-29T03:23:10;1.98;;;1.88;;
64052;SDS011;50299;49.524;8.536;2023-07-29T03:25:37;1.90;;;1.67;;
64052;SDS011;50299;49.524;8.536;2023-07-29T03:28:03;2.83;;;1.50;;
64052;SDS011;50299;49.524;8.536;2023-07-29T03:30:29;2.08;;;1.70;;
64052;SDS011;50299;49.524;8.536;2023-07-29T03:32:56;2.75;;;2.25;;
64052;SDS011;50299;49.524;8.536;2023-07-29T03:35:22;2.40;;;1.58;;
64052;SDS011;50299;49.524;8.536;2023-07-29T03:37:49;2.95;;;2.13;;
64052;SDS011;50299;49.524;8.536;2023-07-29T03:40:15;1.80;;;1.63;;
64052;SDS011;50299;49.524;8.536;2023-07-29T03:42:42;2.10;;;1.88;;
64052;SDS011;50299;49.524;8.536;2023-07-29T03:45:08;3.08;;;1.58;;
64052;SDS011;50299;49.524;8.536;2023-07-29T03:47:35;2.35;;;2.15;;
64052;SDS011;50299;49.524;8.536;2023-07-29T03:50:02;3.53;;;1.90;;
64052;SDS011;50299;49.524;8.536;2023-07-29T03:52:29;2.13;;;1.92;;
64052;SDS011;50299;49.524;8.536;2023-07-29T03:54:55;1.77;;;1.60;;
64052;SDS011;50299;49.524;8.536;2023-07-29T03:57:22;2.25;;;2.10;;
64052;SDS011;50299;49.524;8.536;2023-07-29T03:59:48;1.58;;;1.48;;
64052;SDS011;50299;49.524;8.536;2023-07-29T04:02:14;3.63;;;2.40;;
64052;SDS011;50299;49.524;8.536;2023-07-29T04:04:41;1.98;;;1.88;;
64052;SDS011;50299;49.524;8.536;2023-07-29T04:07:08;2.30;;;2.10;;
64052;SDS011;50299;49.524;8.536;2023-07-29T04:09:35;2.88;;;1.83;;
64052;SDS011;50299;49.524;8.536;2023-07-29T04:12:02;1.90;;;1.80;;
64052;SDS011;50299;49.524;8.536;2023-07-29T04:14:28;4.65;;;2.58;;
64052;SDS011;50299;49.524;8.536;2023-07-29T04:16:54;2.63;;;1.60;;
64052;SDS011;50299;49.524;8.536;2023-07-29T04:19:21;1.77;;;1.60;;
64052;SDS011;50299;49.524;8.536;2023-07-29T04:21:48;2.22;;;2.03;;
64052;SDS011;50299;49.524;8.536;2023-07-29T04:24:16;4.22;;;2.55;;
64052;SDS011;50299;49.524;8.536;2023-07-29T04:26:43;1.88;;;1.77;;
64052;SDS011;50299;49.524;8.536;2023-07-29T04:29:09;2.53;;;1.70;;
64052;SDS011;50299;49.524;8.536;2023-07-29T04:31:36;3.30;;;2.22;;
64052;SDS011;50299;49.524;8.536;2023-07-29T04:34:04;2.05;;;1.95;;
64052;SDS011;50299;49.524;8.536;2023-07-29T04:36:31;2.13;;;1.70;;
64052;SDS011;50299;49.524;8.536;2023-07-29T04:38:57;2.33;;;1.67;;
64052;SDS011;50299;49.524;8.536;2023-07-29T04:41:24;2.05;;;1.80;;
64052;SDS011;50299;49.524;8.536;2023-07-29T04:43:50;2.72;;;2.03;;
64052;SDS011;50299;49.524;8.536;2023-07-29T04:46:17;6.70;;;2.15;;
64052;SDS011;50299;49.524;8.536;2023-07-29T04:48:44;3.15;;;1.88;;
64052;SDS011;50299;49.524;8.536;2023-07-29T04:51:10;6.78;;;2.53;;
64052;SDS011;50299;49.524;8.536;2023-07-29T04:53:36;3.65;;;2.33;;
64052;SDS011;50299;49.524;8.536;2023-07-29T04:56:04;2.33;;;2.13;;
64052;SDS011;50299;49.524;8.536;2023-07-29T04:58:31;2.47;;;2.00;;
64052;SDS011;50299;49.524;8.536;2023-07-29T05:01:01;2.40;;;2.20;;
64052;SDS011;50299;49.524;8.536;2023-07-29T05:03:29;2.15;;;1.95;;
64052;SDS011;50299;49.524;8.536;2023-07-29T05:05:55;3.13;;;2.42;;
64052;SDS011;50299;49.524;8.536;2023-07-29T05:08:23;3.33;;;2.50;;
64052;SDS011;50299;49.524;8.536;2023-07-29T05:10:50;3.25;;;2.90;;
64052;SDS011;50299;49.524;8.536;2023-07-29T05:13:18;5.80;;;3.20;;
64052;SDS011;50299;49.524;8.536;2023-07-29T05:15:45;3.20;;;2.75;;
64052;SDS011;50299;49.524;8.536;2023-07-29T05:18:14;4.68;;;3.13;;
64052;SDS011;50299;49.524;8.536;2023-07-29T05:20:41;3.70;;;3.40;;
64052;SDS011;50299;49.524;8.536;2023-07-29T05:23:08;3.65;;;3.20;;
64052;SDS011;50299;49.524;8.536;2023-07-29T05:25:34;2.65;;;2.45;;
64052;SDS011;50299;49.524;8.536;2023-07-29T05:28:01;3.40;;;3.10;;
64052;SDS011;50299;49.524;8.536;2023-07-29T05:30:28;3.70;;;3.35;;
64052;SDS011;50299;49.524;8.536;2023-07-29T05:32:57;3.40;;;3.10;;
64052;SDS011;50299;49.524;8.536;2023-07-29T05:35:24;3.60;;;2.67;;
64052;SDS011;50299;49.524;8.536;2023-07-29T05:37:50;3.28;;;2.63;;
64052;SDS011;50299;49.524;8.536;2023-07-29T05:40:17;4.47;;;2.63;;
64052;SDS011;50299;49.524;8.536;2023-07-29T05:42:43;4.55;;;2.60;;
64052;SDS011;50299;49.524;8.536;2023-07-29T05:45:11;4.03;;;2.95;;
64052;SDS011;50299;49.524;8.536;2023-07-29T05:47:37;3.60;;;3.20;;
64052;SDS011;50299;49.524;8.536;2023-07-29T05:50:04;2.63;;;2.40;;
64052;SDS011;50299;49.524;8.536;2023-07-29T05:52:31;3.25;;;3.05;;
64052;SDS011;50299;49.524;8.536;2023-07-29T05:54:58;2.20;;;2.00;;
64052;SDS011;50299;49.524;8.536;2023-07-29T05:57:24;3.33;;;2.70;;
64052;SDS011;50299;49.524;8.536;2023-07-29T05:59:51;3.03;;;2.55;;
64052;SDS011;50299;49.524;8.536;2023-07-29T06:02:17;3.95;;;2.47;;
64052;SDS011;50299;49.524;8.536;2023-07-29T06:04:43;2.72;;;2.53;;
64052;SDS011;50299;49.524;8.536;2023-07-29T06:07:10;2.60;;;2.40;;
64052;SDS011;50299;49.524;8.536;2023-07-29T06:09:36;2.42;;;2.22;;
64052;SDS011;50299;49.524;8.536;2023-07-29T06:12:03;3.67;;;2.25;;
64052;SDS011;50299;49.524;8.536;2023-07-29T06:14:29;4.03;;;2.60;;
64052;SDS011;50299;49.524;8.536;2023-07-29T06:16:56;2.22;;;2.03;;
64052;SDS011;50299;49.524;8.536;2023-07-29T06:19:22;3.28;;;2.97;;
64052;SDS011;50299;49.524;8.536;2023-07-29T06:21:49;3.28;;;3.08;;
64052;SDS011;50299;49.524;8.536;2023-07-29T06:24:15;3.97;;;2.88;;
64052;SDS011;50299;49.524;8.536;2023-07-29T06:26:41;3.25;;;2.55;;
64052;SDS011;50299;49.524;8.536;2023-07-29T06:29:08;3.20;;;2.90;;
64052;SDS011;50299;49.524;8.536;2023-07-29T06:31:34;2.92;;;2.70;;
64052;SDS011;50299;49.524;8.536;2023-07-29T06:34:01;2.97;;;2.63;;
64052;SDS011;50299;49.524;8.536;2023-07-29T06:36:27;2.53;;;2.33;;
64052;SDS011;50299;49.524;8.536;2023-07-29T06:38:54;1.67;;;1.58;;
64052;SDS011;50299;49.524;8.536;2023-07-29T06:41:20;2.83;;;2.47;;
64052;SDS011;50299;49.524;8.536;2023-07-29T06:43:46;3.10;;;2.83;;
64052;SDS011;50299;49.524;8.536;2023-07-29T06:46:13;2.15;;;1.95;;
64052;SDS011;50299;49.524;8.536;2023-07-29T06:48:39;2.88;;;2.67;;
64052;SDS011;50299;49.524;8.536;2023-07-29T06:51:06;1.88;;;1.77;;
64052;SDS011;50299;49.524;8.536;2023-07-29T06:53:32;3.83;;;2.60;;
64052;SDS011;50299;49.524;8.536;2023-07-29T06:56:00;3.58;;;3.05;;
64052;SDS011;50299;49.524;8.536;2023-07-29T06:58:26;3.22;;;2.92;;
64052;SDS011;50299;49.524;8.536;2023-07-29T07:00:53;3.83;;;3.28;;
64052;SDS011;50299;49.524;8.536;2023-07-29T07:03:22;5.75;;;3.00;;
64052;SDS011;50299;49.524;8.536;2023-07-29T07:05:50;5.93;;;3.03;;
64052;SDS011;50299;49.524;8.536;2023-07-29T07:08:17;3.20;;;2.90;;
64052;SDS011;50299;49.524;8.536;2023-07-29T07:10:43;3.20;;;2.92;;
64052;SDS011;50299;49.524;8.536;2023-07-29T07:13:10;2.70;;;2.50;;
64052;SDS011;50299;49.524;8.536;2023-07-29T07:15:36;2.83;;;2.53;;
64052;SDS011;50299;49.524;8.536;2023-07-29T07:18:02;3.45;;;3.05;;
64052;SDS011;50299;49.524;8.536;2023-07-29T07:20:29;6.85;;;3.47;;
64052;SDS011;50299;49.524;8.536;2023-07-29T07:22:55;3.60;;;3.20;;
64052;SDS011;50299;49.524;8.536;2023-07-29T07:25:22;2.53;;;2.10;;
64052;SDS011;50299;49.524;8.536;2023-07-29T07:27:49;7.68;;;2.20;;
64052;SDS011;50299;49.524;8.536;2023-07-29T07:30:15;3.00;;;2.05;;
64052;SDS011;50299;49.524;8.536;2023-07-29T07:32:41;2.35;;;1.77;;
64052;SDS011;50299;49.524;8.536;2023-07-29T07:35:08;2.83;;;2.63;;
64052;SDS011;50299;49.524;8.536;2023-07-29T07:37:34;3.83;;;2.92;;
64052;SDS011;50299;49.524;8.536;2023-07-29T07:40:01;3.15;;;2.55;;
64052;SDS011;50299;49.524;8.536;2023-07-29T07:42:27;4.57;;;2.75;;
64052;SDS011;50299;49.524;8.536;2023-07-29T07:44:54;2.40;;;2.13;;
64052;SDS011;50299;49.524;8.536;2023-07-29T07:47:20;2.60;;;2.13;;
64052;SDS011;50299;49.524;8.536;2023-07-29T07:49:46;3.00;;;2.70;;
64052;SDS011;50299;49.524;8.536;2023-07-29T07:52:15;2.80;;;2.60;;
64052;SDS011;50299;49.524;8.536;2023-07-29T07:54:41;2.80;;;2.10;;
64052;SDS011;50299;49.524;8.536;2023-07-29T07:57:08;2.90;;;2.63;;
64052;SDS011;50299;49.524;8.536;2023-07-29T07:59:34;3.97;;;2.28;;
64052;SDS011;50299;49.524;8.536;2023-07-29T08:02:01;3.67;;;2.40;;
64052;SDS011;50299;49.524;8.536;2023-07-29T08:04:27;20.83;;;4.53;;
64052;SDS011;50299;49.524;8.536;2023-07-29T08:06:53;6.47;;;4.63;;
64052;SDS011;50299;49.524;8.536;2023-07-29T08:09:20;15.30;;;4.18;;
64052;SDS011;50299;49.524;8.536;2023-07-29T08:11:47;5.63;;;3.20;;
64052;SDS011;50299;49.524;8.536;2023-07-29T08:14:14;8.70;;;4.35;;
64052;SDS011;50299;49.524;8.536;2023-07-29T08:16:40;6.03;;;4.80;;
64052;SDS011;50299;49.524;8.536;2023-07-29T08:19:07;4.82;;;4.20;;
64052;SDS011;50299;49.524;8.536;2023-07-29T08:21:35;5.20;;;4.72;;
64052;SDS011;50299;49.524;8.536;2023-07-29T08:24:02;4.68;;;3.67;;
64052;SDS011;50299;49.524;8.536;2023-07-29T08:26:29;5.40;;;4.65;;
64052;SDS011;50299;49.524;8.536;2023-07-29T08:28:56;5.97;;;4.88;;
64052;SDS011;50299;49.524;8.536;2023-07-29T08:31:22;5.95;;;5.25;;
64052;SDS011;50299;49.524;8.536;2023-07-29T08:33:49;5.35;;;4.85;;
64052;SDS011;50299;49.524;8.536;2023-07-29T08:36:15;4.15;;;3.78;;
64052;SDS011;50299;49.524;8.536;2023-07-29T08:38:42;5.35;;;4.03;;
64052;SDS011;50299;49.524;8.536;2023-07-29T08:46:49;3.22;;;2.92;;
64052;SDS011;50299;49.524;8.536;2023-07-29T08:49:17;5.53;;;3.17;;
64052;SDS011;50299;49.524;8.536;2023-07-29T08:51:48;3.20;;;2.88;;
64052;SDS011;50299;49.524;8.536;2023-07-29T08:54:15;2.45;;;2.20;;
64052;SDS011;50299;49.524;8.536;2023-07-29T08:56:42;3.33;;;2.58;;
64052;SDS011;50299;49.524;8.536;2023-07-29T08:59:10;3.22;;;2.58;;
64052;SDS011;50299;49.524;8.536;2023-07-29T09:01:39;2.92;;;2.63;;
64052;SDS011;50299;49.524;8.536;2023-07-29T09:04:08;3.17;;;2.40;;
64052;SDS011;50299;49.524;8.536;2023-07-29T09:06:35;4.60;;;2.35;;
64052;SDS011;50299;49.524;8.536;2023-07-29T09:09:03;2.55;;;2.03;;
64052;SDS011;50299;49.524;8.536;2023-07-29T09:11:30;4.30;;;2.55;;
64052;SDS011;50299;49.524;8.536;2023-07-29T09:13:57;4.38;;;2.00;;
64052;SDS011;50299;49.524;8.536;2023-07-29T09:16:23;4.20;;;1.60;;
64052;SDS011;50299;49.524;8.536;2023-07-29T09:18:51;4.45;;;2.30;;
64052;SDS011;50299;49.524;8.536;2023-07-29T09:21:18;2.42;;;2.30;;
64052;SDS011;50299;49.524;8.536;2023-07-29T09:23:50;2.83;;;1.73;;
64052;SDS011;50299;49.524;8.536;2023-07-29T09:26:24;2.67;;;2.47;;
64052;SDS011;50299;49.524;8.536;2023-07-29T09:28:52;5.72;;;2.38;;
64052;SDS011;50299;49.524;8.536;2023-07-29T09:31:21;1.95;;;1.85;;
64052;SDS011;50299;49.524;8.536;2023-07-29T09:33:48;2.33;;;2.13;;
64052;SDS011;50299;49.524;8.536;2023-07-29T09:36:15;3.90;;;2.55;;
64052;SDS011;50299;49.524;8.536;2023-07-29T09:38:42;4.93;;;2.72;;
64052;SDS011;50299;49.524;8.536;2023-07-29T09:41:11;2.83;;;2.35;;
64052;SDS011;50299;49.524;8.536;2023-07-29T09:43:40;2.55;;;2.35;;
64052;SDS011;50299;49.524;8.536;2023-07-29T09:46:06;1.73;;;1.63;;
64052;SDS011;50299;49.524;8.536;2023-07-29T09:48:37;2.63;;;2.42;;
64052;SDS011;50299;49.524;8.536;2023-07-29T09:51:11;2.60;;;2.40;;
64052;SDS011;50299;49.524;8.536;2023-07-29T09:53:45;2.47;;;2.28;;
64052;SDS011;50299;49.524;8.536;2023-07-29T09:56:13;2.88;;;2.38;;
64052;SDS011;50299;49.524;8.536;2023-07-29T09:58:40;2.35;;;2.13;;
64052;SDS011;50299;49.524;8.536;2023-07-29T10:01:09;3.17;;;2.55;;
64052;SDS011;50299;49.524;8.536;2023-07-29T10:03:35;1.92;;;1.83;;
64052;SDS011;50299;49.524;8.536;2023-07-29T10:06:03;3.92;;;2.53;;
64052;SDS011;50299;49.524;8.536;2023-07-29T10:08:33;2.70;;;2.50;;
64052;SDS011;50299;49.524;8.536;2023-07-29T10:11:08;2.33;;;1.88;;
64052;SDS011;50299;49.524;8.536;2023-07-29T10:13:36;2.72;;;2.50;;
64052;SDS011;50299;49.524;8.536;2023-07-29T10:16:03;2.65;;;2.45;;
64052;SDS011;50299;49.524;8.536;2023-07-29T10:18:31;2.13;;;2.03;;
64052;SDS011;50299;49.524;8.536;2023-07-29T10:20:59;2.78;;;2.35;;
64052;SDS011;50299;49.524;8.536;2023-07-29T10:23:28;2.22;;;2.13;;
64052;SDS011;50299;49.524;8.536;2023-07-29T10:26:04;2.22;;;2.13;;
64052;SDS011;50299;49.524;8.536;2023-07-29T10:28:32;2.50;;;2.30;;
64052;SDS011;50299;49.524;8.536;2023-07-29T10:31:01;2.13;;;2.03;;
64052;SDS011;50299;49.524;8.536;2023-07-29T10:33:29;2.33;;;2.13;;
64052;SDS011;50299;49.524;8.536;2023-07-29T10:36:00;2.53;;;2.33;;
64052;SDS011;50299;49.524;8.536;2023-07-29T10:38:27;2.25;;;2.15;;
64052;SDS011;50299;49.524;8.536;2023-07-29T10:40:54;1.98;;;1.88;;
64052;SDS011;50299;49.524;8.536;2023-07-29T10:43:33;2.33;;;2.20;;
64052;SDS011;50299;49.524;8.536;2023-07-29T10:46:19;3.95;;;2.15;;
64052;SDS011;50299;49.524;8.536;2023-07-29T10:51:27;3.38;;;2.00;;
64052;SDS011;50299;49.524;8.536;2023-07-29T10:54:02;1.45;;;1.35;;
64052;SDS011;50299;49.524;8.536;2023-07-29T10:56:33;2.17;;;2.03;;
64052;SDS011;50299;49.524;8.536;2023-07-29T11:01:40;2.22;;;2.08;;
64052;SDS011;50299;49.524;8.536;2023-07-29T11:04:22;2.15;;;2.05;;
64052;SDS011;50299;49.524;8.536;2023-07-29T11:10:13;3.20;;;1.80;;
64052;SDS011;50299;49.524;8.536;2023-07-29T11:17:38;7.90;;;3.35;;
64052;SDS011;50299;49.524;8.536;2023-07-29T11:20:06;5.32;;;3.20;;
64052;SDS011;50299;49.524;8.536;2023-07-29T11:22:34;5.63;;;4.20;;
64052;SDS011;50299;49.524;8.536;2023-07-29T11:25:01;5.68;;;5.18;;
64052;SDS011;50299;49.524;8.536;2023-07-29T11:27:28;4.97;;;3.58;;
64052;SDS011;50299;49.524;8.536;2023-07-29T11:29:58;4.90;;;4.50;;
64052;SDS011;50299;49.524;8.536;2023-07-29T11:32:25;5.05;;;4.63;;
64052;SDS011;50299;49.524;8.536;2023-07-29T11:34:52;4.50;;;4.20;;
64052;SDS011;50299;49.524;8.536;2023-07-29T11:37:18;4.05;;;3.75;;
64052;SDS011;50299;49.524;8.536;2023-07-29T11:39:47;3.75;;;3.55;;
64052;SDS011;50299;49.524;8.536;2023-07-29T11:42:14;4.68;;;3.70;;
64052;SDS011;50299;49.524;8.536;2023-07-29T11:44:41;3.78;;;3.45;;
64052;SDS011;50299;49.524;8.536;2023-07-29T11:47:08;2.83;;;2.63;;
64052;SDS011;50299;49.524;8.536;2023-07-29T11:49:36;2.95;;;2.75;;
64052;SDS011;50299;49.524;8.536;2023-07-29T11:52:08;3.25;;;2.83;;
64052;SDS011;50299;49.524;8.536;2023-07-29T11:54:36;7.30;;;2.75;;
64052;SDS011;50299;49.524;8.536;2023-07-29T11:57:04;2.92;;;1.75;;
64052;SDS011;50299;49.524;8.536;2023-07-29T11:59:33;2.17;;;1.90;;
64052;SDS011;50299;49.524;8.536;2023-07-29T12:02:01;2.85;;;1.80;;
64052;SDS011;50299;49.524;8.536;2023-07-29T12:04:32;1.70;;;1.60;;
64052;SDS011;50299;49.524;8.536;2023-07-29T12:06:59;3.63;;;1.55;;
64052;SDS011;50299;49.524;8.536;2023-07-29T12:09:27;1.73;;;1.63;;
64052;SDS011;50299;49.524;8.536;2023-07-29T12:11:55;2.30;;;2.13;;
64052;SDS011;50299;49.524;8.536;2023-07-29T12:14:21;2.53;;;2.30;;
64052;SDS011;50299;49.524;8.536;2023-07-29T12:16:48;2.13;;;2.03;;
64052;SDS011;50299;49.524;8.536;2023-07-29T12:19:15;2.38;;;2.17;;
64052;SDS011;50299;49.524;8.536;2023-07-29T12:21:43;2.90;;;2.28;;
64052;SDS011;50299;49.524;8.536;2023-07-29T12:24:13;3.25;;;2.50;;
64052;SDS011;50299;49.524;8.536;2023-07-29T12:26:41;3.03;;;2.10;;
64052;SDS011;50299;49.524;8.536;2023-07-29T12:29:14;2.08;;;1.90;;
64052;SDS011;50299;49.524;8.536;2023-07-29T12:31:42;4.53;;;2.08;;
64052;SDS011;50299;49.524;8.536;2023-07-29T12:34:08;1.67;;;1.58;;
64052;SDS011;50299;49.524;8.536;2023-07-29T12:36:44;2.08;;;1.98;;
64052;SDS011;50299;49.524;8.536;2023-07-29T12:39:25;2.25;;;2.05;;
64052;SDS011;50299;49.524;8.536;2023-07-29T12:41:56;3.05;;;1.67;;
64052;SDS011;50299;49.524;8.536;2023-07-29T12:44:24;3.50;;;2.50;;
64052;SDS011;50299;49.524;8.536;2023-07-29T12:46:56;2.20;;;2.10;;
64052;SDS011;50299;49.524;8.536;2023-07-29T12:49:22;2.10;;;2.00;;
64052;SDS011;50299;49.524;8.536;2023-07-29T12:51:49;3.10;;;1.90;;
64052;SDS011;50299;49.524;8.536;2023-07-29T12:54:15;1.85;;;1.45;;
64052;SDS011;50299;49.524;8.536;2023-07-29T12:56:42;2.05;;;1.90;;
64052;SDS011;50299;49.524;8.536;2023-07-29T12:59:08;2.08;;;1.98;;
64052;SDS011;50299;49.524;8.536;2023-07-29T13:01:35;1.50;;;1.40;;
64052;SDS011;50299;49.524;8.536;2023-07-29T13:04:01;1.65;;;1.55;;
64052;SDS011;50299;49.524;8.536;2023-07-29T13:06:27;2.00;;;1.85;;
64052;SDS011;50299;49.524;8.536;2023-07-29T13:08:57;1.90;;;1.80;;
64052;SDS011;50299;49.524;8.536;2023-07-29T13:11:24;2.13;;;2.03;;
64052;SDS011;50299;49.524;8.536;2023-07-29T13:13:51;2.00;;;1.80;;
64052;SDS011;50299;49.524;8.536;2023-07-29T13:16:17;1.67;;;1.58;;
64052;SDS011;50299;49.524;8.536;2023-07-29T13:18:44;2.40;;;2.03;;
64052;SDS011;50299;49.524;8.536;2023-07-29T13:21:11;2.67;;;1.90;;
64052;SDS011;50299;49.524;8.536;2023-07-29T13:23:37;2.38;;;2.20;;
64052;SDS011;50299;49.524;8.536;2023-07-29T13:26:03;1.80;;;1.45;;
64052;SDS011;50299;49.524;8.536;2023-07-29T13:28:30;2.22;;;2.03;;
64052;SDS011;50299;49.524;8.536;2023-07-29T13:30:56;2.50;;;2.30;;
64052;SDS011;50299;49.524;8.536;2023-07-29T13:33:23;2.22;;;2.03;;
64052;SDS011;50299;49.524;8.536;2023-07-29T13:35:49;2.85;;;2.00;;
64052;SDS011;50299;49.524;8.536;2023-07-29T13:38:16;6.55;;;2.15;;
64052;SDS011;50299;49.524;8.536;2023-07-29T13:40:42;2.00;;;1.90;;
64052;SDS011;50299;49.524;8.536;2023-07-29T13:43:09;2.67;;;2.28;;
64052;SDS011;50299;49.524;8.536;2023-07-29T13:45:35;3.33;;;1.70;;
64052;SDS011;50299;49.524;8.536;2023-07-29T13:48:02;2.67;;;1.45;;
64052;SDS011;50299;49.524;8.536;2023-07-29T13:50:29;2.78;;;2.35;;
64052;SDS011;50299;49.524;8.536;2023-07-29T13:52:55;3.45;;;2.10;;
64052;SDS011;50299;49.524;8.536;2023-07-29T13:55:21;2.17;;;1.98;;
64052;SDS011;50299;49.524;8.536;2023-07-29T13:57:48;1.52;;;1.40;;
64052;SDS011;50299;49.524;8.536;2023-07-29T14:00:14;2.15;;;2.05;;
64052;SDS011;50299;49.524;8.536;2023-07-29T14:02:41;2.10;;;1.90;;
64052;SDS011;50299;49.524;8.536;2023-07-29T14:05:09;2.17;;;2.00;;
64052;SDS011;50299;49.524;8.536;2023-07-29T14:07:36;2.75;;;2.00;;
64052;SDS011;50299;49.524;8.536;2023-07-29T14:10:02;2.90;;;1.92;;
64052;SDS011;50299;49.524;8.536;2023-07-29T14:12:29;2.13;;;1.77;;
64052;SDS011;50299;49.524;8.536;2023-07-29T14:14:55;2.13;;;1.55;;
64052;SDS011;50299;49.524;8.536;2023-07-29T14:17:22;2.50;;;2.28;;
64052;SDS011;50299;49.524;8.536;2023-07-29T14:19:48;3.72;;;2.00;;
64052;SDS011;50299;49.524;8.536;2023-07-29T14:22:14;2.08;;;1.98;;
64052;SDS011;50299;49.524;8.536;2023-07-29T14:24:41;2.13;;;1.92;;
64052;SDS011;50299;49.524;8.536;2023-07-29T14:27:07;2.38;;;1.50;;
64052;SDS011;50299;49.524;8.536;2023-07-29T14:29:34;2.10;;;1.95;;
64052;SDS011;50299;49.524;8.536;2023-07-29T14:32:00;3.03;;;1.77;;
64052;SDS011;50299;49.524;8.536;2023-07-29T14:34:26;1.70;;;1.60;;
64052;SDS011;50299;49.524;8.536;2023-07-29T14:36:53;2.22;;;2.03;;
64052;SDS011;50299;49.524;8.536;2023-07-29T14:39:19;2.40;;;1.90;;
64052;SDS011;50299;49.524;8.536;2023-07-29T14:41:45;1.80;;;1.70;;
64052;SDS011;50299;49.524;8.536;2023-07-29T14:44:12;1.60;;;1.50;;
64052;SDS011;50299;49.524;8.536;2023-07-29T14:46:38;3.08;;;1.95;;
64052;SDS011;50299;49.524;8.536;2023-07-29T14:49:05;4.93;;;1.83;;
64052;SDS011;50299;49.524;8.536;2023-07-29T14:51:32;2.25;;;2.03;;
64052;SDS011;50299;49.524;8.536;2023-07-29T14:53:58;2.00;;;1.90;;
64052;SDS011;50299;49.524;8.536;2023-07-29T14:56:25;2.10;;;1.55;;
64052;SDS011;50299;49.524;8.536;2023-07-29T14:58:51;1.88;;;1.35;;
64052;SDS011;50299;49.524;8.536;2023-07-29T15:01:18;3.25;;;1.88;;
64052;SDS011;50299;49.524;8.536;2023-07-29T15:03:44;3.72;;;1.90;;
64052;SDS011;50299;49.524;8.536;2023-07-29T15:06:12;2.97;;;1.98;;
64052;SDS011;50299;49.524;8.536;2023-07-29T15:08:38;2.20;;;2.10;;
64052;SDS011;50299;49.524;8.536;2023-07-29T15:11:05;1.75;;;1.52;;
64052;SDS011;50299;49.524;8.536;2023-07-29T15:13:32;2.63;;;2.20;;
64052;SDS011;50299;49.524;8.536;2023-07-29T15:15:59;3.58;;;1.80;;
64052;SDS011;50299;49.524;8.536;2023-07-29T15:18:25;2.13;;;1.92;;